Toyomasa Maru — JJ3927 — position and weather

sailwx.info

Track history (hours):
 
Tides and Currents Weather Stations Pressure Air Temp Water Temp Dewpoint Dewpoint Depression Visibility Wind Speed Wind Dir Waves Ship Positions

Toyomasa Maru

Last reported at 2016-Aug-26 02:32 UTC. Time now 2016-Aug-26 03:12 UTC.
Position N 34°34' E 135°03'.

Length 101 m; draft 4.4 m.

Type: Tanker. MMSI: 431300401.

Date/timePositionNaut miles runAvg speedWind from/ knotsBaromVisibWave heightAir tempDewpointWater temp
2016-Aug-26 02:32N 34°34' E 135°03'  
2016-Aug-22 14:24N 34°12' E 134°58'1212.4
2016-Aug-22 13:27N 34°24' E 135°00'1212.8
2016-Aug-22 12:33N 34°34' E 135°07'5 4.0
2016-Aug-22 11:23N 34°39' E 135°08'0 0.0
2016-Aug-22 10:30N 34°39' E 135°08'0 0.0
2016-Aug-22 09:29N 34°39' E 135°08'0 0.0
2016-Aug-22 08:29N 34°39' E 135°08'0 0.0
2016-Aug-22 07:30N 34°39' E 135°08'0 0.0
2016-Aug-22 06:29N 34°39' E 135°08'0 0.4
2016-Aug-22 05:34N 34°38' E 135°08'1 0.7
2016-Aug-22 04:29N 34°37' E 135°08'0 0.1
2016-Aug-22 03:29N 34°37' E 135°08'0 0.0
2016-Aug-22 02:29N 34°37' E 135°08'0 0.0
2016-Aug-22 01:23N 34°37' E 135°08'0 0.0
2016-Aug-22 00:11N 34°37' E 135°08'0 0.0
2016-Aug-21 23:29N 34°37' E 135°08'4 4.4
2016-Aug-21 22:33N 34°34' E 135°07'1512.4
2016-Aug-21 21:21N 34°20' E 135°01'910.5
2016-Aug-21 20:33N 34°11' E 135°00'  
2016-Aug-16 08:19N 34°08' E 134°59'1013.1
2016-Aug-16 07:33N 34°18' E 134°59'1312.7
2016-Aug-16 06:33N 34°30' E 135°05'9 4.1
2016-Aug-16 04:20N 34°39' E 135°08'0 0.0
2016-Aug-16 03:20N 34°39' E 135°08'0 0.0
2016-Aug-16 02:32N 34°39' E 135°08'  
Track history (hours):
 
Tides and Currents Weather Stations Pressure Air Temp Water Temp Dewpoint Dewpoint Depression Visibility Wind Speed Wind Dir Waves Ship Positions

Toyomasa Maru

Last reported at 2016-Aug-26 02:32 UTC. Time now 2016-Aug-26 03:12 UTC.
Position N 34°34' E 135°03'.

Length 101 m; draft 4.4 m.

Type: Tanker. MMSI: 431300401.

Date/timePositionNaut miles runAvg speedWind from/ knotsBaromVisibWave heightAir tempDewpointWater temp
2016-Aug-26 02:32N 34°34' E 135°03'  
2016-Aug-22 14:24N 34°12' E 134°58'1212.4
2016-Aug-22 13:27N 34°24' E 135°00'1212.8
2016-Aug-22 12:33N 34°34' E 135°07'5 4.0
2016-Aug-22 11:23N 34°39' E 135°08'0 0.0
2016-Aug-22 10:30N 34°39' E 135°08'0 0.0
2016-Aug-22 09:29N 34°39' E 135°08'0 0.0
2016-Aug-22 08:29N 34°39' E 135°08'0 0.0
2016-Aug-22 07:30N 34°39' E 135°08'0 0.0
2016-Aug-22 06:29N 34°39' E 135°08'0 0.4
2016-Aug-22 05:34N 34°38' E 135°08'1 0.7
2016-Aug-22 04:29N 34°37' E 135°08'0 0.1
2016-Aug-22 03:29N 34°37' E 135°08'0 0.0
2016-Aug-22 02:29N 34°37' E 135°08'0 0.0
2016-Aug-22 01:23N 34°37' E 135°08'0 0.0
2016-Aug-22 00:11N 34°37' E 135°08'0 0.0
2016-Aug-21 23:29N 34°37' E 135°08'4 4.4
2016-Aug-21 22:33N 34°34' E 135°07'1512.4
2016-Aug-21 21:21N 34°20' E 135°01'910.5
2016-Aug-21 20:33N 34°11' E 135°00'  
2016-Aug-16 08:19N 34°08' E 134°59'1013.1
2016-Aug-16 07:33N 34°18' E 134°59'1312.7
2016-Aug-16 06:33N 34°30' E 135°05'9 4.1
2016-Aug-16 04:20N 34°39' E 135°08'0 0.0
2016-Aug-16 03:20N 34°39' E 135°08'0 0.0
2016-Aug-16 02:32N 34°39' E 135°08'  

Dump ship's entire track history